sensor_id;sensor_type;location;lat;lon;timestamp;pressure;altitude;pressure_sealevel;temperature;humidity
61077;BME280;46956;52.186;19.716;2022-07-17T00:02:11;100925.91;;;24.21;35.24
61077;BME280;46956;52.186;19.716;2022-07-17T00:04:39;100931.00;;;24.18;35.72
61077;BME280;46956;52.186;19.716;2022-07-17T00:07:07;100933.47;;;24.24;35.34
61077;BME280;46956;52.186;19.716;2022-07-17T00:09:36;100940.38;;;24.64;35.23
61077;BME280;46956;52.186;19.716;2022-07-17T00:12:05;100937.97;;;23.80;36.12
61077;BME280;46956;52.186;19.716;2022-07-17T00:14:33;100942.38;;;23.69;36.55
61077;BME280;46956;52.186;19.716;2022-07-17T00:17:01;100944.38;;;23.79;36.66
61077;BME280;46956;52.186;19.716;2022-07-17T00:19:29;100951.09;;;23.26;37.28
61077;BME280;46956;52.186;19.716;2022-07-17T00:21:57;100950.69;;;23.34;37.52
61077;BME280;46956;52.186;19.716;2022-07-17T00:24:25;100950.22;;;23.38;37.56
61077;BME280;46956;52.186;19.716;2022-07-17T00:26:58;100947.63;;;23.81;37.01
61077;BME280;46956;52.186;19.716;2022-07-17T00:29:29;100947.06;;;23.79;36.40
61077;BME280;46956;52.186;19.716;2022-07-17T00:31:57;100951.97;;;23.49;36.47
61077;BME280;46956;52.186;19.716;2022-07-17T00:34:26;100953.91;;;23.70;36.35
61077;BME280;46956;52.186;19.716;2022-07-17T00:36:54;100957.13;;;23.89;36.08
61077;BME280;46956;52.186;19.716;2022-07-17T00:39:22;100958.16;;;24.48;34.84
61077;BME280;46956;52.186;19.716;2022-07-17T00:41:50;100962.97;;;24.73;34.09
61077;BME280;46956;52.186;19.716;2022-07-17T00:44:20;100966.00;;;25.08;33.34
61077;BME280;46956;52.186;19.716;2022-07-17T00:46:48;100971.38;;;24.81;33.83
61077;BME280;46956;52.186;19.716;2022-07-17T00:49:16;100974.50;;;24.73;33.73
61077;BME280;46956;52.186;19.716;2022-07-17T00:51:44;100969.34;;;24.67;34.02
61077;BME280;46956;52.186;19.716;2022-07-17T00:54:14;100976.78;;;24.86;33.79
61077;BME280;46956;52.186;19.716;2022-07-17T00:56:46;100975.53;;;24.67;34.00
61077;BME280;46956;52.186;19.716;2022-07-17T00:59:15;100982.97;;;24.87;33.59
61077;BME280;46956;52.186;19.716;2022-07-17T01:01:44;100977.88;;;24.85;32.66
61077;BME280;46956;52.186;19.716;2022-07-17T01:06:44;100974.47;;;27.90;31.54
61077;BME280;46956;52.186;19.716;2022-07-17T01:09:12;100979.47;;;24.60;33.38
61077;BME280;46956;52.186;19.716;2022-07-17T01:11:40;100988.72;;;24.52;33.76
61077;BME280;46956;52.186;19.716;2022-07-17T01:14:08;100985.50;;;24.28;34.09
61077;BME280;46956;52.186;19.716;2022-07-17T01:16:37;100995.41;;;24.28;34.18
61077;BME280;46956;52.186;19.716;2022-07-17T01:19:07;100996.59;;;24.15;34.51
61077;BME280;46956;52.186;19.716;2022-07-17T01:21:42;100988.75;;;24.08;34.50
61077;BME280;46956;52.186;19.716;2022-07-17T01:24:10;100982.13;;;24.16;34.13
61077;BME280;46956;52.186;19.716;2022-07-17T01:26:40;100977.50;;;23.90;34.53
61077;BME280;46956;52.186;19.716;2022-07-17T01:29:10;100980.66;;;24.03;34.37
61077;BME280;46956;52.186;19.716;2022-07-17T01:31:39;100989.50;;;24.04;34.42
61077;BME280;46956;52.186;19.716;2022-07-17T01:34:09;100987.75;;;24.14;34.04
61077;BME280;46956;52.186;19.716;2022-07-17T01:36:37;100993.47;;;24.01;34.31
61077;BME280;46956;52.186;19.716;2022-07-17T01:39:08;100980.38;;;24.05;34.56
61077;BME280;46956;52.186;19.716;2022-07-17T01:41:36;100992.41;;;23.86;34.34
61077;BME280;46956;52.186;19.716;2022-07-17T01:44:07;100991.53;;;23.97;34.48
61077;BME280;46956;52.186;19.716;2022-07-17T01:46:38;100990.06;;;23.89;34.71
61077;BME280;46956;52.186;19.716;2022-07-17T01:49:06;100985.84;;;23.93;34.42
61077;BME280;46956;52.186;19.716;2022-07-17T01:51:34;100988.59;;;23.98;34.21
61077;BME280;46956;52.186;19.716;2022-07-17T01:54:02;100990.50;;;23.81;34.38
61077;BME280;46956;52.186;19.716;2022-07-17T01:56:32;100981.88;;;23.96;34.58
61077;BME280;46956;52.186;19.716;2022-07-17T01:59:00;100985.03;;;24.80;33.80
61077;BME280;46956;52.186;19.716;2022-07-17T02:01:28;100985.03;;;23.76;34.68
61077;BME280;46956;52.186;19.716;2022-07-17T02:03:56;100992.25;;;24.31;34.01
61077;BME280;46956;52.186;19.716;2022-07-17T02:06:24;100985.00;;;24.75;33.08
61077;BME280;46956;52.186;19.716;2022-07-17T02:08:52;100985.69;;;24.65;32.73
61077;BME280;46956;52.186;19.716;2022-07-17T02:11:20;100983.16;;;25.07;32.88
61077;BME280;46956;52.186;19.716;2022-07-17T02:13:50;100988.66;;;24.64;32.96
61077;BME280;46956;52.186;19.716;2022-07-17T02:16:18;100982.03;;;24.71;32.39
61077;BME280;46956;52.186;19.716;2022-07-17T02:18:46;100977.19;;;24.51;32.68
61077;BME280;46956;52.186;19.716;2022-07-17T02:21:15;100983.00;;;24.65;32.47
61077;BME280;46956;52.186;19.716;2022-07-17T02:23:43;100987.84;;;24.63;32.63
61077;BME280;46956;52.186;19.716;2022-07-17T02:26:11;100991.06;;;24.65;32.59
61077;BME280;46956;52.186;19.716;2022-07-17T02:28:39;100987.56;;;24.43;33.17
61077;BME280;46956;52.186;19.716;2022-07-17T02:31:12;100989.94;;;24.61;32.68
61077;BME280;46956;52.186;19.716;2022-07-17T02:33:39;100992.53;;;24.34;33.33
61077;BME280;46956;52.186;19.716;2022-07-17T02:36:08;100991.47;;;24.13;33.75
61077;BME280;46956;52.186;19.716;2022-07-17T02:38:36;100984.69;;;24.28;33.60
61077;BME280;46956;52.186;19.716;2022-07-17T02:41:04;100990.56;;;24.68;33.26
61077;BME280;46956;52.186;19.716;2022-07-17T02:43:32;100990.94;;;24.33;33.70
61077;BME280;46956;52.186;19.716;2022-07-17T02:46:00;100996.53;;;24.10;34.68
61077;BME280;46956;52.186;19.716;2022-07-17T02:48:32;100981.47;;;24.26;34.84
61077;BME280;46956;52.186;19.716;2022-07-17T02:50:59;100988.69;;;24.25;34.67
61077;BME280;46956;52.186;19.716;2022-07-17T02:53:28;101011.28;;;24.12;34.73
61077;BME280;46956;52.186;19.716;2022-07-17T02:58:26;100995.06;;;24.19;35.03
61077;BME280;46956;52.186;19.716;2022-07-17T03:00:57;100995.34;;;24.44;35.09
61077;BME280;46956;52.186;19.716;2022-07-17T03:03:26;101001.03;;;24.26;34.92
61077;BME280;46956;52.186;19.716;2022-07-17T03:05:57;101009.38;;;24.08;35.47
61077;BME280;46956;52.186;19.716;2022-07-17T03:08:25;101009.53;;;23.85;35.62
61077;BME280;46956;52.186;19.716;2022-07-17T03:10:53;101014.56;;;23.98;35.79
61077;BME280;46956;52.186;19.716;2022-07-17T03:13:21;101011.50;;;23.56;36.09
61077;BME280;46956;52.186;19.716;2022-07-17T03:15:49;101010.94;;;24.04;35.46
61077;BME280;46956;52.186;19.716;2022-07-17T03:18:17;101020.75;;;24.20;35.22
61077;BME280;46956;52.186;19.716;2022-07-17T03:20:45;101019.84;;;24.31;34.94
61077;BME280;46956;52.186;19.716;2022-07-17T03:23:15;101018.28;;;24.57;34.64
61077;BME280;46956;52.186;19.716;2022-07-17T03:25:42;101019.69;;;24.86;33.99
61077;BME280;46956;52.186;19.716;2022-07-17T03:28:11;101027.44;;;25.10;33.47
61077;BME280;46956;52.186;19.716;2022-07-17T03:30:39;101021.78;;;24.79;33.78
61077;BME280;46956;52.186;19.716;2022-07-17T03:33:07;101015.50;;;24.47;34.29
61077;BME280;46956;52.186;19.716;2022-07-17T03:35:35;101028.91;;;24.69;34.15
61077;BME280;46956;52.186;19.716;2022-07-17T03:38:04;101031.34;;;24.70;33.62
61077;BME280;46956;52.186;19.716;2022-07-17T03:40:34;101036.75;;;24.75;34.10
61077;BME280;46956;52.186;19.716;2022-07-17T03:43:01;101031.63;;;24.52;33.86
61077;BME280;46956;52.186;19.716;2022-07-17T03:45:29;101038.25;;;24.66;33.74
61077;BME280;46956;52.186;19.716;2022-07-17T03:47:58;101045.47;;;24.44;33.99
61077;BME280;46956;52.186;19.716;2022-07-17T03:50:25;101039.09;;;24.50;33.71
61077;BME280;46956;52.186;19.716;2022-07-17T03:52:54;101038.75;;;24.41;34.07
61077;BME280;46956;52.186;19.716;2022-07-17T03:55:22;101046.03;;;24.46;34.40
61077;BME280;46956;52.186;19.716;2022-07-17T03:57:52;101041.06;;;24.55;34.03
61077;BME280;46956;52.186;19.716;2022-07-17T04:00:20;101037.13;;;24.19;34.35
61077;BME280;46956;52.186;19.716;2022-07-17T04:02:49;101035.56;;;24.44;34.19
61077;BME280;46956;52.186;19.716;2022-07-17T04:05:16;101041.75;;;24.06;34.50
61077;BME280;46956;52.186;19.716;2022-07-17T04:07:45;101037.59;;;24.16;34.34
61077;BME280;46956;52.186;19.716;2022-07-17T04:10:14;101042.19;;;24.20;34.51
61077;BME280;46956;52.186;19.716;2022-07-17T04:12:42;101037.41;;;24.22;34.45
61077;BME280;46956;52.186;19.716;2022-07-17T04:15:12;101040.00;;;24.34;34.16
61077;BME280;46956;52.186;19.716;2022-07-17T04:17:40;101040.44;;;24.26;34.50
61077;BME280;46956;52.186;19.716;2022-07-17T04:20:09;101036.31;;;24.18;34.71
61077;BME280;46956;52.186;19.716;2022-07-17T04:22:37;101045.97;;;24.19;34.63
61077;BME280;46956;52.186;19.716;2022-07-17T04:25:05;101049.81;;;24.28;34.44
61077;BME280;46956;52.186;19.716;2022-07-17T04:27:33;101047.94;;;24.29;34.62
61077;BME280;46956;52.186;19.716;2022-07-17T04:30:01;101050.78;;;24.00;34.80
61077;BME280;46956;52.186;19.716;2022-07-17T04:32:31;101060.63;;;23.95;35.52
61077;BME280;46956;52.186;19.716;2022-07-17T04:34:59;101057.69;;;23.80;35.80
61077;BME280;46956;52.186;19.716;2022-07-17T04:37:26;101068.41;;;23.96;35.84
61077;BME280;46956;52.186;19.716;2022-07-17T04:39:54;101076.25;;;23.86;35.66
61077;BME280;46956;52.186;19.716;2022-07-17T04:42:22;101078.13;;;23.86;35.96
61077;BME280;46956;52.186;19.716;2022-07-17T04:44:50;101073.56;;;23.69;36.08
61077;BME280;46956;52.186;19.716;2022-07-17T04:47:18;101081.72;;;23.74;35.99
61077;BME280;46956;52.186;19.716;2022-07-17T04:49:47;101090.06;;;24.11;36.34
61077;BME280;46956;52.186;19.716;2022-07-17T04:52:16;101085.59;;;24.17;36.24
61077;BME280;46956;52.186;19.716;2022-07-17T04:54:43;101096.63;;;23.87;37.23
61077;BME280;46956;52.186;19.716;2022-07-17T04:57:11;101081.41;;;24.04;36.61
61077;BME280;46956;52.186;19.716;2022-07-17T04:59:39;101100.59;;;24.57;36.57
61077;BME280;46956;52.186;19.716;2022-07-17T05:02:07;101113.53;;;24.60;36.94
61077;BME280;46956;52.186;19.716;2022-07-17T05:04:35;101111.44;;;24.45;37.01
61077;BME280;46956;52.186;19.716;2022-07-17T05:07:05;101116.97;;;24.77;37.05
61077;BME280;46956;52.186;19.716;2022-07-17T05:09:32;101119.69;;;25.04;36.93
61077;BME280;46956;52.186;19.716;2022-07-17T05:12:01;101114.50;;;24.70;36.29
61077;BME280;46956;52.186;19.716;2022-07-17T05:14:28;101124.03;;;24.83;36.70
61077;BME280;46956;52.186;19.716;2022-07-17T05:16:56;101118.69;;;25.32;36.38
61077;BME280;46956;52.186;19.716;2022-07-17T05:19:24;101117.81;;;25.26;36.83
61077;BME280;46956;52.186;19.716;2022-07-17T05:21:52;101126.25;;;25.13;37.02
61077;BME280;46956;52.186;19.716;2022-07-17T05:24:22;101130.00;;;25.12;36.85
61077;BME280;46956;52.186;19.716;2022-07-17T05:26:50;101127.19;;;25.02;37.16
61077;BME280;46956;52.186;19.716;2022-07-17T05:29:18;101130.84;;;25.17;37.30
61077;BME280;46956;52.186;19.716;2022-07-17T05:31:46;101133.72;;;25.11;36.68
61077;BME280;46956;52.186;19.716;2022-07-17T05:34:14;101127.34;;;25.17;37.42
61077;BME280;46956;52.186;19.716;2022-07-17T05:36:42;101138.41;;;25.42;37.36
61077;BME280;46956;52.186;19.716;2022-07-17T05:39:10;101142.00;;;24.82;37.63
61077;BME280;46956;52.186;19.716;2022-07-17T05:41:39;101144.47;;;24.89;37.93
61077;BME280;46956;52.186;19.716;2022-07-17T05:44:08;101135.81;;;25.04;37.55
61077;BME280;46956;52.186;19.716;2022-07-17T05:46:36;101137.25;;;25.38;37.31
61077;BME280;46956;52.186;19.716;2022-07-17T05:49:04;101133.00;;;25.69;36.51
61077;BME280;46956;52.186;19.716;2022-07-17T05:51:33;101143.84;;;25.79;36.76
61077;BME280;46956;52.186;19.716;2022-07-17T05:54:01;101131.09;;;25.64;36.51
61077;BME280;46956;52.186;19.716;2022-07-17T05:56:29;101132.66;;;25.60;36.37
61077;BME280;46956;52.186;19.716;2022-07-17T05:58:59;101136.00;;;25.73;36.73
61077;BME280;46956;52.186;19.716;2022-07-17T06:01:28;101147.59;;;25.78;36.76
61077;BME280;46956;52.186;19.716;2022-07-17T06:03:56;101147.31;;;25.75;36.98
61077;BME280;46956;52.186;19.716;2022-07-17T06:06:24;101151.00;;;25.68;36.72
61077;BME280;46956;52.186;19.716;2022-07-17T06:08:52;101165.25;;;25.96;36.48
61077;BME280;46956;52.186;19.716;2022-07-17T06:11:20;101157.75;;;26.40;36.19
61077;BME280;46956;52.186;19.716;2022-07-17T06:13:55;101163.03;;;26.25;36.74
61077;BME280;46956;52.186;19.716;2022-07-17T06:16:25;101167.22;;;26.48;36.29
61077;BME280;46956;52.186;19.716;2022-07-17T06:18:54;101158.47;;;26.62;35.72
61077;BME280;46956;52.186;19.716;2022-07-17T06:21:23;101165.09;;;27.07;34.76
61077;BME280;46956;52.186;19.716;2022-07-17T06:23:54;101170.44;;;27.02;35.66
61077;BME280;46956;52.186;19.716;2022-07-17T06:26:23;101170.69;;;26.85;35.22
61077;BME280;46956;52.186;19.716;2022-07-17T06:28:51;101172.53;;;26.42;34.86
61077;BME280;46956;52.186;19.716;2022-07-17T06:31:19;101171.69;;;26.32;34.19
61077;BME280;46956;52.186;19.716;2022-07-17T06:33:51;101174.38;;;26.79;35.10
61077;BME280;46956;52.186;19.716;2022-07-17T06:36:19;101171.59;;;26.59;34.72
61077;BME280;46956;52.186;19.716;2022-07-17T06:38:47;101170.63;;;26.80;34.47
61077;BME280;46956;52.186;19.716;2022-07-17T06:41:15;101161.69;;;27.27;35.22
61077;BME280;46956;52.186;19.716;2022-07-17T06:43:44;101151.47;;;27.29;33.47
61077;BME280;46956;52.186;19.716;2022-07-17T06:46:12;101167.09;;;27.42;33.59
61077;BME280;46956;52.186;19.716;2022-07-17T06:48:40;101164.84;;;27.13;34.08
61077;BME280;46956;52.186;19.716;2022-07-17T06:51:10;101158.25;;;27.62;32.74
61077;BME280;46956;52.186;19.716;2022-07-17T06:53:38;101156.91;;;27.64;33.19
61077;BME280;46956;52.186;19.716;2022-07-17T06:56:06;101177.66;;;27.64;33.01
61077;BME280;46956;52.186;19.716;2022-07-17T06:58:34;101183.91;;;27.79;33.26
61077;BME280;46956;52.186;19.716;2022-07-17T07:01:02;101175.22;;;27.52;33.22
61077;BME280;46956;52.186;19.716;2022-07-17T07:03:30;101178.97;;;27.61;32.82
61077;BME280;46956;52.186;19.716;2022-07-17T07:05:58;101173.38;;;27.78;33.54
61077;BME280;46956;52.186;19.716;2022-07-17T07:08:29;101179.84;;;28.02;32.28
61077;BME280;46956;52.186;19.716;2022-07-17T07:10:57;101176.88;;;27.93;32.00
61077;BME280;46956;52.186;19.716;2022-07-17T07:13:25;101184.72;;;27.95;32.72
61077;BME280;46956;52.186;19.716;2022-07-17T07:15:53;101178.50;;;27.79;31.73
61077;BME280;46956;52.186;19.716;2022-07-17T07:18:22;101187.94;;;27.92;31.38
61077;BME280;46956;52.186;19.716;2022-07-17T07:20:50;101188.22;;;27.80;31.55
61077;BME280;46956;52.186;19.716;2022-07-17T07:23:17;101180.38;;;28.34;31.46
61077;BME280;46956;52.186;19.716;2022-07-17T07:25:48;101182.00;;;28.05;32.34
61077;BME280;46956;52.186;19.716;2022-07-17T07:28:16;101182.81;;;28.36;30.76
61077;BME280;46956;52.186;19.716;2022-07-17T07:30:44;101175.50;;;28.52;31.00
61077;BME280;46956;52.186;19.716;2022-07-17T07:33:12;101184.19;;;28.03;32.32
61077;BME280;46956;52.186;19.716;2022-07-17T07:35:41;101194.41;;;28.11;31.82
61077;BME280;46956;52.186;19.716;2022-07-17T07:38:10;101184.41;;;28.32;31.54
61077;BME280;46956;52.186;19.716;2022-07-17T07:40:38;101179.75;;;28.78;30.71
61077;BME280;46956;52.186;19.716;2022-07-17T07:43:09;101190.34;;;28.44;31.15
61077;BME280;46956;52.186;19.716;2022-07-17T07:45:37;101199.44;;;28.84;31.05
61077;BME280;46956;52.186;19.716;2022-07-17T07:48:05;101204.84;;;28.79;29.87
61077;BME280;46956;52.186;19.716;2022-07-17T07:50:34;101201.84;;;28.80;30.60
61077;BME280;46956;52.186;19.716;2022-07-17T07:53:02;101201.69;;;28.56;30.10
61077;BME280;46956;52.186;19.716;2022-07-17T07:55:30;101208.84;;;28.96;30.86
61077;BME280;46956;52.186;19.716;2022-07-17T07:58:02;101204.59;;;28.70;30.25
61077;BME280;46956;52.186;19.716;2022-07-17T08:00:32;101203.25;;;28.57;30.69
61077;BME280;46956;52.186;19.716;2022-07-17T08:05:32;101205.34;;;28.96;29.85
61077;BME280;46956;52.186;19.716;2022-07-17T08:08:00;101217.75;;;28.97;30.35
61077;BME280;46956;52.186;19.716;2022-07-17T08:10:28;101215.38;;;28.65;29.65
61077;BME280;46956;52.186;19.716;2022-07-17T08:12:57;101224.88;;;28.52;29.41
61077;BME280;46956;52.186;19.716;2022-07-17T08:15:25;101230.19;;;28.83;29.21
61077;BME280;46956;52.186;19.716;2022-07-17T08:17:55;101220.47;;;28.82;29.55
61077;BME280;46956;52.186;19.716;2022-07-17T08:20:23;101207.75;;;29.02;29.65
61077;BME280;46956;52.186;19.716;2022-07-17T08:22:52;101209.66;;;29.56;28.62
61077;BME280;46956;52.186;19.716;2022-07-17T08:25:32;101224.50;;;28.99;28.75
61077;BME280;46956;52.186;19.716;2022-07-17T08:28:02;101222.22;;;29.27;29.06
61077;BME280;46956;52.186;19.716;2022-07-17T08:30:30;101232.59;;;28.94;27.49
61077;BME280;46956;52.186;19.716;2022-07-17T08:33:06;101226.53;;;29.28;27.89
61077;BME280;46956;52.186;19.716;2022-07-17T08:35:35;101231.41;;;29.26;27.67
61077;BME280;46956;52.186;19.716;2022-07-17T08:38:04;101232.41;;;29.40;28.07
61077;BME280;46956;52.186;19.716;2022-07-17T08:40:34;101228.59;;;29.46;27.66
61077;BME280;46956;52.186;19.716;2022-07-17T08:43:05;101224.81;;;29.91;26.70
61077;BME280;46956;52.186;19.716;2022-07-17T08:45:34;101230.16;;;30.01;26.27
61077;BME280;46956;52.186;19.716;2022-07-17T08:48:12;101233.94;;;30.00;26.97
61077;BME280;46956;52.186;19.716;2022-07-17T08:50:41;101223.44;;;29.55;27.11
61077;BME280;46956;52.186;19.716;2022-07-17T08:53:10;101231.94;;;29.77;26.33
61077;BME280;46956;52.186;19.716;2022-07-17T08:55:38;101242.69;;;29.87;26.04
61077;BME280;46956;52.186;19.716;2022-07-17T08:58:06;101253.13;;;29.65;26.11
61077;BME280;46956;52.186;19.716;2022-07-17T09:00:36;101246.19;;;29.43;26.34
61077;BME280;46956;52.186;19.716;2022-07-17T09:03:06;101229.31;;;30.11;25.32
61077;BME280;46956;52.186;19.716;2022-07-17T09:05:37;101231.41;;;30.19;25.44
61077;BME280;46956;52.186;19.716;2022-07-17T09:08:07;101230.72;;;30.32;25.46
61077;BME280;46956;52.186;19.716;2022-07-17T09:10:37;101235.28;;;30.37;24.81
61077;BME280;46956;52.186;19.716;2022-07-17T09:13:18;101233.31;;;30.42;24.42
61077;BME280;46956;52.186;19.716;2022-07-17T09:15:48;101230.47;;;30.34;25.39
61077;BME280;46956;52.186;19.716;2022-07-17T09:18:16;101230.81;;;30.22;23.96
61077;BME280;46956;52.186;19.716;2022-07-17T09:20:53;101235.13;;;30.52;24.68
61077;BME280;46956;52.186;19.716;2022-07-17T09:23:23;101235.75;;;30.96;24.54
61077;BME280;46956;52.186;19.716;2022-07-17T09:25:53;101225.88;;;30.63;24.12
61077;BME280;46956;52.186;19.716;2022-07-17T09:28:22;101222.97;;;29.86;23.51
61077;BME280;46956;52.186;19.716;2022-07-17T09:30:53;101240.16;;;30.01;23.84
61077;BME280;46956;52.186;19.716;2022-07-17T09:33:23;101231.16;;;30.15;22.92
61077;BME280;46956;52.186;19.716;2022-07-17T09:35:55;101237.44;;;30.40;22.25
61077;BME280;46956;52.186;19.716;2022-07-17T09:38:32;101224.13;;;30.72;22.00
61077;BME280;46956;52.186;19.716;2022-07-17T09:41:06;101237.84;;;30.52;21.31
61077;BME280;46956;52.186;19.716;2022-07-17T09:43:44;101237.75;;;31.15;20.90
61077;BME280;46956;52.186;19.716;2022-07-17T09:46:18;101200.53;;;31.39;19.34
61077;BME280;46956;52.186;19.716;2022-07-17T09:48:49;101197.41;;;31.69;20.09
61077;BME280;46956;52.186;19.716;2022-07-17T09:51:23;101232.44;;;31.66;21.01
61077;BME280;46956;52.186;19.716;2022-07-17T09:53:53;101242.97;;;31.30;21.37
61077;BME280;46956;52.186;19.716;2022-07-17T09:56:23;101241.28;;;31.34;20.68
61077;BME280;46956;52.186;19.716;2022-07-17T09:58:54;101206.13;;;31.29;19.46
61077;BME280;46956;52.186;19.716;2022-07-17T10:01:24;101219.16;;;31.27;20.03
61077;BME280;46956;52.186;19.716;2022-07-17T10:03:53;101236.66;;;31.16;20.26
61077;BME280;46956;52.186;19.716;2022-07-17T10:06:24;101209.13;;;31.65;20.17
61077;BME280;46956;52.186;19.716;2022-07-17T10:08:53;101215.50;;;31.36;19.70
61077;BME280;46956;52.186;19.716;2022-07-17T10:11:23;101210.09;;;31.13;20.19
61077;BME280;46956;52.186;19.716;2022-07-17T10:13:52;101195.13;;;31.39;18.00
61077;BME280;46956;52.186;19.716;2022-07-17T10:16:25;101223.41;;;31.33;19.71
61077;BME280;46956;52.186;19.716;2022-07-17T10:18:54;101228.00;;;31.75;20.91
61077;BME280;46956;52.186;19.716;2022-07-17T10:21:29;101213.00;;;31.40;18.77
61077;BME280;46956;52.186;19.716;2022-07-17T10:24:07;101218.72;;;31.57;19.45
61077;BME280;46956;52.186;19.716;2022-07-17T10:26:39;101220.34;;;31.77;19.16
61077;BME280;46956;52.186;19.716;2022-07-17T10:29:08;101205.81;;;31.87;19.57
61077;BME280;46956;52.186;19.716;2022-07-17T10:31:53;101211.63;;;31.80;18.92
61077;BME280;46956;52.186;19.716;2022-07-17T10:34:36;101211.84;;;32.16;19.66
61077;BME280;46956;52.186;19.716;2022-07-17T10:37:18;101227.53;;;31.87;19.24
61077;BME280;46956;52.186;19.716;2022-07-17T10:40:04;101214.25;;;31.85;19.68
61077;BME280;46956;52.186;19.716;2022-07-17T10:42:43;101199.53;;;32.24;18.82
61077;BME280;46956;52.186;19.716;2022-07-17T10:45:14;101196.34;;;32.63;19.57
61077;BME280;46956;52.186;19.716;2022-07-17T10:47:54;101210.00;;;32.58;18.78
61077;BME280;46956;52.186;19.716;2022-07-17T10:50:26;101204.09;;;32.69;19.02
61077;BME280;46956;52.186;19.716;2022-07-17T10:53:14;101216.16;;;32.49;18.60
61077;BME280;46956;52.186;19.716;2022-07-17T10:55:54;101189.50;;;32.38;17.73
61077;BME280;46956;52.186;19.716;2022-07-17T10:58:24;101190.72;;;32.73;17.76
61077;BME280;46956;52.186;19.716;2022-07-17T11:01:02;101207.53;;;32.88;18.38
61077;BME280;46956;52.186;19.716;2022-07-17T11:03:33;101205.88;;;32.46;18.66
61077;BME280;46956;52.186;19.716;2022-07-17T11:06:11;101210.00;;;32.58;18.51
61077;BME280;46956;52.186;19.716;2022-07-17T11:08:46;101201.81;;;32.76;18.43
61077;BME280;46956;52.186;19.716;2022-07-17T11:11:16;101192.44;;;32.96;17.64
61077;BME280;46956;52.186;19.716;2022-07-17T11:13:52;101208.50;;;33.20;19.21
61077;BME280;46956;52.186;19.716;2022-07-17T11:16:28;101208.09;;;33.26;19.68
61077;BME280;46956;52.186;19.716;2022-07-17T11:18:58;101211.94;;;33.25;18.85
61077;BME280;46956;52.186;19.716;2022-07-17T11:21:27;101226.47;;;32.94;19.33
61077;BME280;46956;52.186;19.716;2022-07-17T11:23:57;101232.72;;;32.34;18.37
61077;BME280;46956;52.186;19.716;2022-07-17T11:26:25;101214.84;;;32.14;18.36
61077;BME280;46956;52.186;19.716;2022-07-17T11:28:55;101212.13;;;33.02;19.62
61077;BME280;46956;52.186;19.716;2022-07-17T11:31:29;101210.81;;;32.58;18.86
61077;BME280;46956;52.186;19.716;2022-07-17T11:33:59;101210.63;;;32.55;19.31
61077;BME280;46956;52.186;19.716;2022-07-17T11:36:29;101230.34;;;32.60;19.98
61077;BME280;46956;52.186;19.716;2022-07-17T11:39:04;101210.00;;;32.58;18.77
61077;BME280;46956;52.186;19.716;2022-07-17T11:41:34;101209.50;;;33.10;19.31
61077;BME280;46956;52.186;19.716;2022-07-17T11:44:03;101195.31;;;33.13;18.19
61077;BME280;46956;52.186;19.716;2022-07-17T11:46:32;101210.72;;;32.49;17.82
61077;BME280;46956;52.186;19.716;2022-07-17T11:49:01;101212.56;;;32.81;19.18
61077;BME280;46956;52.186;19.716;2022-07-17T11:51:35;101214.44;;;32.53;19.09
61077;BME280;46956;52.186;19.716;2022-07-17T11:54:06;101211.13;;;32.57;18.64
61077;BME280;46956;52.186;19.716;2022-07-17T11:56:35;101218.06;;;32.17;19.49
61077;BME280;46956;52.186;19.716;2022-07-17T11:59:03;101214.81;;;32.33;19.54
61077;BME280;46956;52.186;19.716;2022-07-17T12:01:39;101205.34;;;31.98;18.30
61077;BME280;46956;52.186;19.716;2022-07-17T12:04:09;101222.63;;;31.70;18.99
61077;BME280;46956;52.186;19.716;2022-07-17T12:06:44;101220.63;;;31.57;19.70
61077;BME280;46956;52.186;19.716;2022-07-17T12:09:25;101210.25;;;31.45;19.55
61077;BME280;46956;52.186;19.716;2022-07-17T12:11:54;101216.53;;;31.97;19.00
61077;BME280;46956;52.186;19.716;2022-07-17T12:14:23;101221.72;;;31.56;19.51
61077;BME280;46956;52.186;19.716;2022-07-17T12:16:51;101224.72;;;31.35;19.82
61077;BME280;46956;52.186;19.716;2022-07-17T12:19:28;101233.50;;;31.46;19.88
61077;BME280;46956;52.186;19.716;2022-07-17T12:22:00;101234.47;;;31.13;20.37
61077;BME280;46956;52.186;19.716;2022-07-17T12:24:32;101234.41;;;31.23;20.15
61077;BME280;46956;52.186;19.716;2022-07-17T12:29:32;101228.19;;;31.97;20.41
61077;BME280;46956;52.186;19.716;2022-07-17T12:32:02;101222.56;;;32.26;20.01
61077;BME280;46956;52.186;19.716;2022-07-17T12:34:30;101226.09;;;32.40;19.48
61077;BME280;46956;52.186;19.716;2022-07-17T12:37:02;101227.22;;;32.53;19.60
61077;BME280;46956;52.186;19.716;2022-07-17T12:39:32;101222.59;;;32.67;18.85
61077;BME280;46956;52.186;19.716;2022-07-17T12:42:00;101220.84;;;32.44;18.38
61077;BME280;46956;52.186;19.716;2022-07-17T12:44:30;101233.03;;;32.33;19.69
61077;BME280;46956;52.186;19.716;2022-07-17T12:46:58;101212.34;;;32.18;18.01
61077;BME280;46956;52.186;19.716;2022-07-17T12:49:27;101214.13;;;32.09;19.03
61077;BME280;46956;52.186;19.716;2022-07-17T12:51:55;101220.13;;;31.73;19.17
61077;BME280;46956;52.186;19.716;2022-07-17T12:54:23;101228.09;;;31.27;19.14
61077;BME280;46956;52.186;19.716;2022-07-17T12:56:53;101222.91;;;31.68;19.81
61077;BME280;46956;52.186;19.716;2022-07-17T12:59:22;101218.28;;;31.88;19.29
61077;BME280;46956;52.186;19.716;2022-07-17T13:01:50;101213.69;;;31.69;19.35
61077;BME280;46956;52.186;19.716;2022-07-17T13:04:19;101197.69;;;31.87;19.28